Time;durP1;ratioP1;P1;durP2;ratioP2;P2;SDS_P1;SDS_P2;PMS_P1;PMS_P2;Temp;Humidity;BMP_temperature;BMP_pressure;BME280_temperature;BME280_humidity;BME280_pressure;Samples;Min_cycle;Max_cycle;Signal;HPM_P1;HPM_P2
2022/06/28 00:11:15;;;;;;;15.23;13.68;;;13.00;99.90;;;;;;5021872;28;20042;-84
2022/06/28 00:18:15;;;;;;;19.15;16.52;;;13.00;99.90;;;;;;4979460;28;20100;-84
2022/06/28 00:21:40;;;;;;;20.63;18.25;;;13.00;99.90;;;;;;4944002;29;20511;-84
2022/06/28 00:28:12;;;;;;;24.13;19.02;;;12.90;99.90;;;;;;4908020;29;20063;-84
2022/06/28 00:31:09;;;;;;;20.73;16.63;;;12.90;99.90;;;;;;4935677;29;20048;-84
2022/06/28 00:34:16;;;;;;;16.10;14.38;;;12.90;99.90;;;;;;4905257;29;20075;-86
2022/06/28 00:37:40;;;;;;;;;;;;;;;;;;;;;
2022/06/28 00:40:20;;;;;;;18.25;16.35;;;12.80;99.90;;;;;;4921096;28;20783;-84
2022/06/28 00:43:23;;;;;;;17.52;15.27;;;12.70;99.90;;;;;;4989480;28;20041;-84
2022/06/28 00:47:09;;;;;;;;;;;;;;;;;;;;;
2022/06/28 00:50:05;;;;;;;17.33;14.15;;;12.70;99.90;;;;;;4868751;29;20060;-84
2022/06/28 00:59:38;;;;;;;17.75;14.25;;;12.60;99.90;;;;;;4991885;28;20057;-85
2022/06/28 01:47:13;;;;;;;18.23;15.73;;;12.30;99.90;;;;;;5058362;28;20552;-85
2022/06/28 01:54:20;;;;;;;20.13;16.35;;;12.30;99.90;;;;;;4982613;28;20053;-84
2022/06/28 02:01:00;;;;;;;20.30;15.77;;;12.30;99.90;;;;;;4874906;29;20049;-84
2022/06/28 02:03:34;;;;;;;22.50;17.05;;;12.30;99.90;;;;;;4949491;29;20039;-84
2022/06/28 02:06:03;;;;;;;18.17;16.08;;;12.30;99.90;;;;;;4954208;28;20157;-83
2022/06/28 02:09:38;;;;;;;18.27;16.17;;;12.30;99.90;;;;;;4976721;28;20055;-84
2022/06/28 02:12:26;;;;;;;20.40;18.10;;;12.30;99.90;;;;;;4940252;29;20061;-84
2022/06/28 02:15:11;;;;;;;24.92;17.02;;;12.30;99.90;;;;;;4903617;29;20046;-84
2022/06/28 02:18:08;;;;;;;25.23;18.20;;;12.30;99.90;;;;;;4949139;28;20101;-84
2022/06/28 02:20:39;;;;;;;23.23;16.45;;;12.20;99.90;;;;;;4988427;28;20097;-86
2022/06/28 02:23:05;;;;;;;17.75;15.73;;;12.10;99.90;;;;;;4987567;28;20034;-84
2022/06/28 02:26:01;;;;;;;23.98;17.80;;;12.20;99.90;;;;;;4985305;28;20065;-84
2022/06/28 02:28:48;;;;;;;17.90;15.02;;;12.20;99.90;;;;;;4977783;28;20077;-84
2022/06/28 02:32:06;;;;;;;18.60;16.27;;;12.20;99.90;;;;;;5005393;22;20502;-85
2022/06/28 02:40:42;;;;;;;19.83;14.73;;;12.10;99.90;;;;;;4993425;28;20043;-84
2022/06/28 02:43:13;;;;;;;21.73;14.95;;;12.20;99.90;;;;;;4997772;28;20527;-84
2022/06/28 02:45:42;;;;;;;21.08;16.83;;;12.10;99.90;;;;;;5003047;28;20034;-84
2022/06/28 02:48:21;;;;;;;20.50;17.80;;;12.20;99.90;;;;;;5001432;28;20048;-85
2022/06/28 02:50:55;;;;;;;18.73;15.52;;;12.10;99.90;;;;;;4988447;28;20403;-84
2022/06/28 02:53:25;;;;;;;25.98;19.73;;;12.10;99.90;;;;;;4984120;28;20176;-84
2022/06/28 02:56:10;;;;;;;19.52;14.60;;;12.10;99.90;;;;;;4988586;28;20073;-84
2022/06/28 02:58:36;;;;;;;18.30;15.17;;;12.10;99.90;;;;;;4986314;28;20576;-86
2022/06/28 03:01:02;;;;;;;18.58;16.52;;;12.10;99.90;;;;;;4986098;28;20337;-84
2022/06/28 03:03:27;;;;;;;20.70;16.45;;;12.00;99.90;;;;;;4988952;28;20038;-84
2022/06/28 03:05:53;;;;;;;20.42;16.60;;;12.10;99.90;;;;;;4997707;28;20057;-84
2022/06/28 03:08:26;;;;;;;22.88;16.75;;;12.00;99.90;;;;;;5013250;28;20038;-85
2022/06/28 03:10:52;;;;;;;24.35;17.65;;;12.10;99.90;;;;;;4975373;28;20038;-85
2022/06/28 03:13:21;;;;;;;21.35;18.58;;;12.00;99.90;;;;;;4980146;28;20057;-83
2022/06/28 03:15:46;;;;;;;20.67;16.58;;;12.00;99.90;;;;;;4994907;28;20038;-85
2022/06/28 03:18:12;;;;;;;21.90;18.25;;;12.10;99.90;;;;;;4991966;28;20041;-85
2022/06/28 03:21:13;;;;;;;24.48;18.10;;;12.10;99.90;;;;;;4980777;28;20042;-85
2022/06/28 03:23:38;;;;;;;21.17;16.67;;;12.00;99.90;;;;;;4969435;28;20124;-84
2022/06/28 03:26:04;;;;;;;25.83;17.63;;;12.10;99.90;;;;;;4994803;28;20049;-84
2022/06/28 03:29:24;;;;;;;22.38;17.38;;;12.10;99.90;;;;;;4993860;28;20408;-85
2022/06/28 03:32:24;;;;;;;22.45;18.27;;;12.10;99.90;;;;;;4950876;29;20067;-84
2022/06/28 03:37:58;;;;;;;22.13;17.65;;;12.10;99.90;;;;;;4953787;29;20066;-85
2022/06/28 03:40:31;;;;;;;20.05;17.60;;;12.10;99.90;;;;;;4939799;29;20047;-85
2022/06/28 03:43:23;;;;;;;20.73;16.00;;;12.10;99.90;;;;;;4930923;28;20122;-85
2022/06/28 03:45:51;;;;;;;20.73;15.73;;;12.10;99.90;;;;;;5010378;28;20104;-85
2022/06/28 03:48:17;;;;;;;19.70;16.38;;;12.10;99.90;;;;;;4997131;28;20043;-84
2022/06/28 03:50:43;;;;;;;19.73;17.45;;;12.10;99.90;;;;;;4993774;28;20038;-85
2022/06/28 03:53:08;;;;;;;36.88;17.42;;;12.10;99.90;;;;;;4993591;28;20045;-86
2022/06/28 03:55:51;;;;;;;21.98;16.80;;;12.10;99.90;;;;;;5002498;28;20053;-87
2022/06/28 03:59:11;;;;;;;19.75;16.23;;;12.10;99.90;;;;;;4990719;28;20186;-84
2022/06/28 04:05:35;;;;;;;19.27;14.83;;;12.20;99.90;;;;;;5015586;28;20108;-85
2022/06/28 04:08:00;;;;;;;19.52;16.95;;;12.20;99.90;;;;;;4980150;28;20826;-84
2022/06/28 04:10:29;;;;;;;18.92;14.60;;;12.20;99.90;;;;;;4987620;28;20077;-85
2022/06/28 04:13:00;;;;;;;19.15;15.80;;;12.20;99.90;;;;;;4979486;28;20045;-85
2022/06/28 04:19:22;;;;;;;20.52;16.20;;;12.30;99.90;;;;;;4919825;29;20047;-86
2022/06/28 04:22:00;;;;;;;21.38;14.05;;;12.30;99.90;;;;;;4916435;29;20040;-84
2022/06/28 04:28:28;;;;;;;20.73;15.10;;;12.40;99.90;;;;;;4910620;29;20040;-86
2022/06/28 04:31:08;;;;;;;;;;;;;;;;;;;;;
2022/06/28 04:33:39;;;;;;;17.45;15.48;;;12.50;99.90;;;;;;4900766;29;20036;-84
2022/06/28 04:36:05;;;;;;;20.85;15.65;;;12.50;99.90;;;;;;4896658;29;20036;-85
2022/06/28 04:38:36;;;;;;;25.70;18.08;;;12.50;99.90;;;;;;4895952;29;20055;-85
2022/06/28 04:41:05;;;;;;;22.42;16.35;;;12.60;99.90;;;;;;4906562;29;20047;-84
2022/06/28 04:43:31;;;;;;;20.50;16.13;;;12.50;99.90;;;;;;4976246;28;20121;-85
2022/06/28 04:45:59;;;;;;;21.60;16.48;;;12.60;99.90;;;;;;4992455;28;20080;-86
2022/06/28 04:48:25;;;;;;;23.27;18.20;;;12.70;99.90;;;;;;5000568;28;20056;-84
2022/06/28 04:51:16;;;;;;;22.20;17.98;;;12.70;99.90;;;;;;4984050;28;20070;-85
2022/06/28 04:53:44;;;;;;;23.08;16.25;;;12.80;99.90;;;;;;4998094;28;20122;-85
2022/06/28 04:56:11;;;;;;;24.52;19.13;;;12.90;99.90;;;;;;4978232;28;20519;-84
2022/06/28 04:58:36;;;;;;;23.38;18.50;;;13.00;99.90;;;;;;4975847;28;20395;-85
2022/06/28 05:01:05;;;;;;;21.73;17.42;;;13.00;99.90;;;;;;5008743;23;20040;-85
2022/06/28 05:03:31;;;;;;;16.35;14.10;;;13.10;99.90;;;;;;5031989;28;20040;-85
2022/06/28 05:06:24;;;;;;;21.50;17.67;;;13.10;99.90;;;;;;5031561;28;20048;-84
2022/06/28 05:09:06;;;;;;;24.40;16.60;;;13.20;99.90;;;;;;5029704;28;20044;-85
2022/06/28 05:12:11;;;;;;;20.52;16.67;;;13.40;99.90;;;;;;5025506;28;20414;-85
2022/06/28 05:15:06;;;;;;;19.38;15.70;;;13.30;99.90;;;;;;5015172;28;20041;-85
2022/06/28 05:20:56;;;;;;;18.42;15.32;;;13.50;99.90;;;;;;4967743;28;20074;-84
2022/06/28 05:27:47;;;;;;;23.00;16.38;;;13.70;99.90;;;;;;4929526;28;20224;-85
2022/06/28 05:35:48;;;;;;;16.63;13.38;;;14.10;99.90;;;;;;5063796;23;20057;-82
2022/06/28 05:38:30;;;;;;;21.95;14.07;;;14.20;99.90;;;;;;5051690;28;20037;-80
2022/06/28 05:44:39;;;;;;;18.75;14.10;;;14.40;99.90;;;;;;5051408;28;20049;-82
2022/06/28 05:48:14;;;;;;;19.75;13.63;;;14.50;99.90;;;;;;5047210;28;20136;-81
2022/06/28 06:08:47;;;;;;;16.70;13.23;;;15.40;99.90;;;;;;5035552;28;20053;-85
2022/06/28 06:22:48;;;;;;;17.42;12.57;;;15.80;99.90;;;;;;5096889;22;20072;-85
2022/06/28 06:25:16;;;;;;;17.17;12.82;;;16.00;99.90;;;;;;4999010;28;20042;-86
2022/06/28 06:27:42;;;;;;;20.58;11.88;;;16.10;99.90;;;;;;4982659;28;20101;-86
2022/06/28 06:30:08;;;;;;;12.98;9.30;;;16.40;99.90;;;;;;4982328;28;20060;-85
2022/06/28 06:32:33;;;;;;;13.32;10.13;;;16.60;99.90;;;;;;4964904;28;20121;-85
2022/06/28 06:34:59;;;;;;;12.32;9.00;;;16.90;99.90;;;;;;4963782;28;20050;-86
2022/06/28 06:37:25;;;;;;;13.98;8.23;;;17.30;99.90;;;;;;4964005;28;20038;-86
2022/06/28 06:39:51;;;;;;;10.10;7.85;;;17.40;99.90;;;;;;4979771;28;20035;-85
2022/06/28 06:42:16;;;;;;;9.80;7.13;;;17.70;99.90;;;;;;4982283;28;20065;-85
2022/06/28 06:44:42;;;;;;;8.68;5.88;;;17.90;99.90;;;;;;4967796;28;20089;-85
2022/06/28 06:47:07;;;;;;;11.10;6.45;;;18.10;99.90;;;;;;4968117;28;20400;-84
2022/06/28 06:49:33;;;;;;;11.18;6.53;;;18.30;99.90;;;;;;4986029;28;20042;-84
2022/06/28 06:51:59;;;;;;;10.20;6.40;;;18.40;99.90;;;;;;4985390;28;20039;-84
2022/06/28 06:54:24;;;;;;;8.77;5.63;;;18.50;99.90;;;;;;4999512;28;20041;-85
2022/06/28 06:56:50;;;;;;;9.30;5.28;;;18.70;99.90;;;;;;5005630;28;20056;-84
2022/06/28 06:59:16;;;;;;;6.82;4.63;;;18.80;99.90;;;;;;5005022;28;20045;-83
2022/06/28 07:01:42;;;;;;;4.90;3.80;;;19.10;99.90;;;;;;5008259;28;20046;-84
2022/06/28 07:04:08;;;;;;;9.38;4.25;;;19.20;99.90;;;;;;4993981;28;20034;-83
2022/06/28 07:06:34;;;;;;;7.32;3.72;;;19.30;99.90;;;;;;5012238;28;20124;-84
2022/06/28 07:09:00;;;;;;;5.45;3.72;;;19.40;99.90;;;;;;5001403;28;20042;-83
2022/06/28 07:11:25;;;;;;;6.88;3.45;;;19.50;99.90;;;;;;4992456;28;20046;-84
2022/06/28 07:13:51;;;;;;;6.90;3.28;;;19.70;99.90;;;;;;4975904;28;20041;-82
2022/06/28 07:16:17;;;;;;;5.70;4.03;;;19.80;99.90;;;;;;4992606;28;20042;-83
2022/06/28 07:18:43;;;;;;;4.35;2.65;;;19.80;99.90;;;;;;4991221;28;20047;-83
2022/06/28 07:21:09;;;;;;;5.45;3.25;;;20.00;99.90;;;;;;4992943;28;20065;-82
2022/06/28 07:23:35;;;;;;;7.07;3.20;;;20.10;99.90;;;;;;4991604;28;20428;-82
2022/06/28 07:26:01;;;;;;;6.72;3.55;;;20.20;99.90;;;;;;4992502;28;20042;-82
2022/06/28 07:28:26;;;;;;;3.72;3.10;;;20.20;99.90;;;;;;4993343;28;20050;-82
2022/06/28 07:30:52;;;;;;;6.28;3.17;;;20.40;99.90;;;;;;4992198;28;20405;-81
2022/06/28 07:33:18;;;;;;;4.82;2.38;;;20.50;99.90;;;;;;4977037;28;20074;-81
2022/06/28 07:35:44;;;;;;;5.25;2.67;;;20.40;99.90;;;;;;4992510;28;20101;-82
2022/06/28 07:38:10;;;;;;;6.57;3.53;;;20.20;99.90;;;;;;4992282;28;20097;-82
2022/06/28 07:40:36;;;;;;;8.80;2.92;;;20.00;99.90;;;;;;5009777;28;20038;-82
2022/06/28 07:43:02;;;;;;;6.03;2.25;;;20.00;99.90;;;;;;5028364;28;20174;-81
2022/06/28 07:45:27;;;;;;;5.47;2.92;;;19.90;99.90;;;;;;5028574;28;20042;-81
2022/06/28 07:47:53;;;;;;;9.07;3.25;;;20.10;99.90;;;;;;5009567;28;20049;-80
2022/06/28 07:53:05;;;;;;;5.43;2.72;;;20.10;99.90;;;;;;5009475;28;20054;-81
2022/06/28 07:55:31;;;;;;;9.30;3.10;;;20.30;99.90;;;;;;4994251;28;20105;-82
2022/06/28 07:57:57;;;;;;;7.53;2.50;;;20.70;99.90;;;;;;5006067;28;20042;-83
2022/06/28 08:00:23;;;;;;;5.25;2.28;;;21.00;99.90;;;;;;4990639;28;20057;-81
2022/06/28 08:02:49;;;;;;;5.35;1.90;;;21.20;99.90;;;;;;4990474;28;20046;-80
2022/06/28 08:05:15;;;;;;;5.20;1.77;;;21.40;99.90;;;;;;4990243;28;20073;-81
2022/06/28 08:07:41;;;;;;;3.25;1.92;;;21.40;99.90;;;;;;4989594;28;20042;-81
2022/06/28 08:10:08;;;;;;;3.40;1.80;;;21.30;99.90;;;;;;4972886;28;20049;-82
2022/06/28 08:12:34;;;;;;;6.07;2.15;;;21.30;99.90;;;;;;4988978;28;20094;-81
2022/06/28 08:15:00;;;;;;;4.57;1.27;;;21.60;99.90;;;;;;5008133;28;20054;-80
2022/06/28 08:17:26;;;;;;;5.05;1.00;;;21.70;99.90;;;;;;5023550;28;20037;-80
2022/06/28 08:19:52;;;;;;;3.13;1.00;;;21.60;99.90;;;;;;5026231;28;20071;-82
2022/06/28 08:22:17;;;;;;;2.78;0.90;;;21.30;99.90;;;;;;5008111;28;20038;-81
2022/06/28 08:24:43;;;;;;;4.30;1.65;;;21.30;99.90;;;;;;5008706;28;20056;-80
2022/06/28 08:27:09;;;;;;;3.08;0.50;;;21.50;99.90;;;;;;5026674;28;20048;-81
2022/06/28 08:29:34;;;;;;;3.63;0.90;;;21.70;99.90;;;;;;5007457;28;20110;-81
2022/06/28 08:32:01;;;;;;;6.57;0.98;;;22.00;99.90;;;;;;5006782;28;20073;-82
2022/06/28 08:34:27;;;;;;;6.85;1.15;;;22.00;99.90;;;;;;5008103;28;20056;-81
2022/06/28 08:36:53;;;;;;;4.55;0.60;;;21.90;99.90;;;;;;5010518;28;20042;-80
2022/06/28 08:39:18;;;;;;;2.88;0.50;;;21.70;99.90;;;;;;5008913;28;20076;-81
2022/06/28 08:41:45;;;;;;;2.75;0.70;;;21.70;99.90;;;;;;5008838;28;20041;-81
2022/06/28 08:44:11;;;;;;;4.05;0.68;;;22.00;99.90;;;;;;5009890;28;20071;-81
2022/06/28 08:46:38;;;;;;;2.88;0.47;;;22.20;99.90;;;;;;5008361;28;20075;-81
2022/06/28 08:49:41;;;;;;;3.67;0.63;;;22.50;99.90;;;;;;5009754;28;20053;-82
2022/06/28 08:52:08;;;;;;;3.45;0.82;;;22.70;99.90;;;;;;5007247;28;20117;-81
2022/06/28 08:54:35;;;;;;;4.50;0.65;;;22.60;99.90;;;;;;5007397;28;20544;-81
2022/06/28 08:57:02;;;;;;;2.88;0.35;;;22.60;99.90;;;;;;5007078;28;20049;-82
2022/06/28 08:59:28;;;;;;;5.47;0.88;;;22.60;99.90;;;;;;4989766;28;20045;-81
2022/06/28 09:01:55;;;;;;;3.67;0.73;;;22.60;99.90;;;;;;5006309;28;20045;-81
2022/06/28 09:04:20;;;;;;;3.30;0.55;;;22.80;99.90;;;;;;4982480;28;20046;-81
2022/06/28 09:06:46;;;;;;;2.03;0.50;;;22.90;99.90;;;;;;4999980;28;20048;-82
2022/06/28 09:09:11;;;;;;;2.83;0.40;;;23.00;99.90;;;;;;5009163;28;20408;-82
2022/06/28 09:11:43;;;;;;;5.38;0.70;;;23.10;99.90;;;;;;5006252;28;20050;-82
2022/06/28 09:14:35;;;;;;;4.72;1.08;;;23.30;99.90;;;;;;5006672;28;20042;-82
2022/06/28 09:17:20;;;;;;;3.08;0.45;;;23.40;99.90;;;;;;5007505;28;20092;-81
2022/06/28 09:19:46;;;;;;;3.05;0.40;;;23.30;99.90;;;;;;4991221;28;20045;-82
2022/06/28 09:22:37;;;;;;;3.25;0.82;;;22.90;99.90;;;;;;5000514;28;20101;-81
2022/06/28 09:25:26;;;;;;;1.52;0.40;;;22.40;99.90;;;;;;4987696;28;20046;-82
2022/06/28 09:27:56;;;;;;;3.13;0.40;;;22.40;99.90;;;;;;4983277;28;20123;-83
2022/06/28 09:30:24;;;;;;;2.70;0.40;;;22.70;99.90;;;;;;4979136;28;20098;-83
2022/06/28 09:32:49;;;;;;;3.13;0.30;;;23.00;99.90;;;;;;4978855;28;20447;-83
2022/06/28 09:35:15;;;;;;;3.45;0.40;;;23.30;99.90;;;;;;4979809;28;20053;-83
2022/06/28 09:37:53;;;;;;;1.52;0.50;;;23.40;99.90;;;;;;4979765;28;20404;-83
2022/06/28 09:40:31;;;;;;;2.45;0.60;;;23.70;99.90;;;;;;4996479;28;20061;-84
2022/06/28 09:43:12;;;;;;;2.15;0.35;;;24.10;99.90;;;;;;4999152;28;20041;-84
2022/06/28 09:45:46;;;;;;;2.20;0.40;;;24.50;99.90;;;;;;5000199;28;20042;-84
2022/06/28 09:48:20;;;;;;;1.90;0.35;;;24.80;99.90;;;;;;4998904;28;20050;-83
2022/06/28 09:50:46;;;;;;;2.25;0.40;;;25.10;99.90;;;;;;4982396;28;20042;-84
2022/06/28 09:53:15;;;;;;;2.58;0.20;;;25.00;99.90;;;;;;4996925;28;20050;-84
2022/06/28 09:55:42;;;;;;;2.08;0.30;;;24.80;97.80;;;;;;4996632;28;20065;-85
2022/06/28 09:58:08;;;;;;;2.90;0.30;;;24.80;97.90;;;;;;4999056;28;20377;-84
2022/06/28 10:00:35;;;;;;;5.43;1.17;;;24.80;97.80;;;;;;4998815;28;20123;-83
2022/06/28 10:03:01;;;;;;;1.80;0.40;;;25.00;98.70;;;;;;4998000;28;20053;-83
2022/06/28 10:05:28;;;;;;;3.80;0.35;;;25.30;99.30;;;;;;4997572;28;20555;-84
2022/06/28 10:07:53;;;;;;;3.17;0.30;;;25.60;97.40;;;;;;4997595;28;20046;-82
2022/06/28 10:10:22;;;;;;;3.65;0.38;;;25.90;95.10;;;;;;5003963;28;20049;-82
2022/06/28 10:15:44;;;;;;;3.60;0.50;;;26.20;95.90;;;;;;4981978;28;20054;-82
2022/06/28 10:18:15;;;;;;;3.60;0.30;;;26.50;92.60;;;;;;4968216;28;20101;-82
2022/06/28 10:20:43;;;;;;;1.20;0.30;;;26.60;94.60;;;;;;4979263;28;20151;-80
2022/06/28 10:23:43;;;;;;;3.50;0.43;;;26.70;94.20;;;;;;4964689;28;20039;-82
2022/06/28 10:26:18;;;;;;;1.73;0.20;;;26.80;89.20;;;;;;4964097;28;20122;-81
2022/06/28 10:28:46;;;;;;;2.60;0.40;;;26.80;94.30;;;;;;4965105;28;20109;-80
2022/06/28 10:31:24;;;;;;;2.17;0.52;;;27.10;91.00;;;;;;4989449;28;20508;-81
2022/06/28 10:33:58;;;;;;;2.72;0.50;;;27.50;87.50;;;;;;4999678;28;20050;-83
2022/06/28 10:36:26;;;;;;;2.42;0.45;;;27.60;92.90;;;;;;4996399;28;20096;-82
2022/06/28 10:39:01;;;;;;;1.63;0.35;;;27.10;92.40;;;;;;4996632;28;20145;-82
2022/06/28 10:41:50;;;;;;;3.65;0.50;;;26.70;92.50;;;;;;4995899;28;20063;-82
2022/06/28 10:44:27;;;;;;;3.17;0.50;;;26.70;90.10;;;;;;4980927;28;20120;-83
2022/06/28 10:47:17;;;;;;;3.45;0.38;;;26.70;79.10;;;;;;4999085;28;20044;-82
2022/06/28 10:49:42;;;;;;;3.28;0.50;;;26.60;86.70;;;;;;4962353;28;20415;-83
2022/06/28 10:52:16;;;;;;;2.03;0.63;;;26.80;90.30;;;;;;4962295;28;20046;-83
2022/06/28 10:54:51;;;;;;;4.28;0.50;;;27.30;93.50;;;;;;4966064;28;20047;-82
2022/06/28 10:57:21;;;;;;;3.35;0.50;;;27.70;84.20;;;;;;4964191;28;20110;-83
2022/06/28 10:59:49;;;;;;;4.72;0.63;;;28.10;87.70;;;;;;4964201;28;20042;-81
2022/06/28 11:02:15;;;;;;;3.10;0.40;;;28.10;78.40;;;;;;4964152;28;20101;-82
2022/06/28 11:04:41;;;;;;;1.80;0.20;;;27.60;86.90;;;;;;4986269;28;20509;-81
2022/06/28 11:07:23;;;;;;;2.85;0.22;;;26.80;90.40;;;;;;4967888;28;20035;-83
2022/06/28 11:10:03;;;;;;;4.30;0.40;;;26.80;85.20;;;;;;4967172;28;20060;-80
2022/06/28 11:12:29;;;;;;;2.25;0.38;;;26.60;81.70;;;;;;4984012;28;20050;-83
2022/06/28 11:14:59;;;;;;;2.53;0.40;;;26.50;91.70;;;;;;4982856;28;20065;-81
2022/06/28 11:17:29;;;;;;;1.30;0.20;;;26.00;90.60;;;;;;4963262;28;20085;-83
2022/06/28 11:20:00;;;;;;;3.22;0.40;;;25.40;87.10;;;;;;4978213;28;20050;-83
2022/06/28 11:22:32;;;;;;;2.45;0.20;;;25.00;88.80;;;;;;4978944;28;20052;-83
2022/06/28 11:25:03;;;;;;;3.45;0.40;;;25.20;83.30;;;;;;4978758;28;20045;-83
2022/06/28 11:27:29;;;;;;;3.60;0.40;;;25.60;92.00;;;;;;4979114;28;20042;-83
2022/06/28 11:30:04;;;;;;;3.58;0.30;;;26.20;93.20;;;;;;4978432;28;20149;-83
2022/06/28 11:32:39;;;;;;;3.05;0.25;;;26.90;91.00;;;;;;4978492;28;20069;-83
2022/06/28 11:35:06;;;;;;;1.95;0.57;;;27.50;85.00;;;;;;4977947;28;20129;-83
2022/06/28 11:37:45;;;;;;;2.70;0.30;;;27.70;71.20;;;;;;4994941;28;20034;-83
2022/06/28 11:40:11;;;;;;;3.70;0.20;;;27.80;86.00;;;;;;4981667;28;20485;-84
2022/06/28 11:42:36;;;;;;;2.80;0.50;;;28.20;86.80;;;;;;4997880;28;20049;-83
2022/06/28 11:45:02;;;;;;;1.15;0.13;;;28.60;77.70;;;;;;4997791;28;20038;-82
2022/06/28 11:47:29;;;;;;;2.15;0.80;;;29.10;75.80;;;;;;4997698;28;20045;-83
2022/06/28 11:50:12;;;;;;;4.82;0.50;;;29.60;67.50;;;;;;4981600;28;20141;-83
2022/06/28 11:52:54;;;;;;;1.30;0.30;;;29.60;61.20;;;;;;4966535;28;20046;-82
2022/06/28 11:55:37;;;;;;;1.55;0.20;;;29.30;60.70;;;;;;4977795;28;20086;-83
2022/06/28 11:58:18;;;;;;;2.03;0.20;;;29.40;58.80;;;;;;4978552;28;20057;-83
2022/06/28 12:01:02;;;;;;;2.10;0.10;;;29.50;58.50;;;;;;4962716;28;20401;-82
2022/06/28 12:03:28;;;;;;;;;;;29.40;54.90;;;;;;4978946;28;20404;-83
2022/06/28 12:05:58;;;;;;;2.03;0.20;;;29.20;56.80;;;;;;4979596;28;20016;-82
2022/06/28 12:08:42;;;;;;;2.97;0.32;;;28.40;63.90;;;;;;4979581;28;20093;-82
2022/06/28 12:11:23;;;;;;;2.90;0.20;;;28.30;56.80;;;;;;4994590;28;20154;-82
2022/06/28 12:13:48;;;;;;;1.00;0.20;;;28.50;65.00;;;;;;4995166;28;20042;-82
2022/06/28 12:16:17;;;;;;;2.75;0.68;;;28.90;63.80;;;;;;4994081;28;20571;-82
2022/06/28 12:18:53;;;;;;;1.92;0.52;;;29.20;61.50;;;;;;4994872;28;20138;-82
2022/06/28 12:21:19;;;;;;;2.67;0.30;;;29.60;59.90;;;;;;4994900;28;20572;-83
2022/06/28 12:23:50;;;;;;;4.00;0.30;;;29.90;62.20;;;;;;4994784;28;20069;-82
2022/06/28 12:26:17;;;;;;;1.17;0.40;;;30.20;60.00;;;;;;4994537;28;20121;-82
2022/06/28 12:28:42;;;;;;;2.53;0.20;;;30.30;58.80;;;;;;4987480;28;20112;-82
2022/06/28 12:31:08;;;;;;;4.72;0.20;;;30.30;55.60;;;;;;4979460;28;20133;-82
2022/06/28 12:33:34;;;;;;;2.88;0.30;;;30.40;57.70;;;;;;4977914;28;20046;-83
2022/06/28 12:35:59;;;;;;;1.10;0.43;;;30.30;59.10;;;;;;4978552;28;20777;-82
2022/06/28 12:38:25;;;;;;;2.13;0.30;;;30.30;57.90;;;;;;4977293;28;20054;-82
2022/06/28 12:40:50;;;;;;;3.95;0.60;;;30.30;58.00;;;;;;4979264;28;20045;-81
2022/06/28 12:43:16;;;;;;;1.60;0.20;;;29.40;54.60;;;;;;4984279;28;20092;-81
2022/06/28 12:45:42;;;;;;;3.13;0.35;;;29.00;63.10;;;;;;4982353;28;20038;-82
2022/06/28 12:48:08;;;;;;;3.38;0.40;;;29.40;65.10;;;;;;4983670;28;20043;-82
2022/06/28 12:50:34;;;;;;;1.75;0.52;;;29.90;57.60;;;;;;4983773;28;20084;-81
2022/06/28 12:53:00;;;;;;;3.13;0.50;;;30.30;58.50;;;;;;4982267;28;20538;-83
2022/06/28 12:55:25;;;;;;;3.65;0.32;;;30.50;57.40;;;;;;4963941;28;20256;-82
2022/06/28 12:57:51;;;;;;;4.00;0.30;;;30.50;54.90;;;;;;4980140;28;20046;-83
2022/06/28 13:00:17;;;;;;;3.28;0.50;;;30.20;56.90;;;;;;4987729;28;20033;-82
2022/06/28 13:02:43;;;;;;;2.00;0.22;;;30.20;56.10;;;;;;4979149;28;20045;-83
2022/06/28 13:05:10;;;;;;;2.40;0.20;;;30.30;55.80;;;;;;4980358;28;20121;-82
2022/06/28 13:07:41;;;;;;;1.67;0.30;;;30.30;53.60;;;;;;4977897;28;20038;-82
2022/06/28 13:10:08;;;;;;;5.25;0.50;;;29.80;57.50;;;;;;4978536;28;20081;-83
2022/06/28 13:12:34;;;;;;;0.70;0.20;;;29.80;55.20;;;;;;4985505;28;20046;-81
2022/06/28 13:15:00;;;;;;;2.08;0.30;;;30.00;57.80;;;;;;4981873;28;20493;-81
2022/06/28 13:17:25;;;;;;;2.53;0.35;;;30.30;56.40;;;;;;4982297;28;20489;-83
2022/06/28 13:19:51;;;;;;;1.00;0.28;;;30.60;54.50;;;;;;4981611;28;20053;-82
2022/06/28 13:22:16;;;;;;;2.47;0.38;;;30.80;56.40;;;;;;4980009;28;20042;-81
2022/06/28 13:24:42;;;;;;;2.85;0.20;;;30.90;54.90;;;;;;4981848;28;20030;-81
2022/06/28 13:27:08;;;;;;;3.10;0.50;;;31.10;57.00;;;;;;4982135;28;20039;-82
2022/06/28 13:29:33;;;;;;;12.05;1.35;;;31.40;55.50;;;;;;4962076;28;20046;-82
2022/06/28 13:31:59;;;;;;;12.95;6.97;;;31.80;53.90;;;;;;4976469;28;20101;-82
2022/06/28 13:34:25;;;;;;;11.57;9.88;;;31.90;53.40;;;;;;4976972;28;20042;-82
2022/06/28 13:36:51;;;;;;;11.07;5.95;;;32.20;53.60;;;;;;4978674;28;20069;-82
2022/06/28 13:39:16;;;;;;;16.70;10.75;;;32.40;53.10;;;;;;4977348;28;20078;-82
2022/06/28 13:41:42;;;;;;;3.35;0.95;;;32.50;51.80;;;;;;4977177;28;20031;-81
2022/06/28 13:44:09;;;;;;;5.90;1.02;;;32.60;53.20;;;;;;4993947;28;20049;-82
2022/06/28 13:46:35;;;;;;;4.82;1.08;;;32.40;53.30;;;;;;4996546;28;20378;-82
2022/06/28 13:49:00;;;;;;;4.15;0.82;;;32.60;51.80;;;;;;4980919;28;20057;-82
2022/06/28 13:51:28;;;;;;;2.60;0.22;;;32.60;50.70;;;;;;4968255;28;20039;-82
2022/06/28 13:53:53;;;;;;;2.63;0.40;;;32.70;50.80;;;;;;4976151;28;20062;-82
2022/06/28 13:56:19;;;;;;;2.60;0.30;;;32.80;51.60;;;;;;4977596;28;20053;-82
2022/06/28 13:58:45;;;;;;;5.97;0.90;;;32.70;49.70;;;;;;4976425;28;20050;-83
2022/06/28 14:01:10;;;;;;;2.53;0.40;;;32.90;49.30;;;;;;4993266;28;20045;-81
2022/06/28 14:03:36;;;;;;;1.67;0.50;;;32.70;49.40;;;;;;4997545;28;20049;-80
2022/06/28 14:06:01;;;;;;;2.88;0.30;;;32.70;49.50;;;;;;4996962;28;20088;-81
2022/06/28 14:08:27;;;;;;;3.17;0.30;;;32.70;48.30;;;;;;4986456;28;20074;-81
2022/06/28 14:10:53;;;;;;;2.13;0.40;;;33.00;48.60;;;;;;4961498;28;20416;-81
2022/06/28 14:13:22;;;;;;;6.20;0.60;;;33.20;48.40;;;;;;4976535;28;20053;-82
2022/06/28 14:15:52;;;;;;;8.50;0.40;;;33.00;45.00;;;;;;4977459;28;20537;-83
2022/06/28 14:18:21;;;;;;;2.60;0.20;;;32.30;47.00;;;;;;4977715;28;20042;-81
2022/06/28 14:20:47;;;;;;;3.53;0.65;;;32.10;46.70;;;;;;4981684;28;20038;-81
2022/06/28 14:23:13;;;;;;;3.03;0.57;;;32.30;47.30;;;;;;4982183;28;20050;-81
2022/06/28 14:25:39;;;;;;;2.30;0.10;;;32.30;46.50;;;;;;4985685;28;20045;-81
2022/06/28 14:28:05;;;;;;;3.38;0.30;;;32.60;48.90;;;;;;4985226;28;20074;-81
2022/06/28 14:30:30;;;;;;;0.88;0.15;;;33.00;46.70;;;;;;4997178;28;20481;-81
2022/06/28 14:32:57;;;;;;;1.80;0.30;;;33.40;46.90;;;;;;5003730;28;20060;-81
2022/06/28 14:35:23;;;;;;;3.22;0.30;;;33.60;45.00;;;;;;5003338;28;20396;-81
2022/06/28 14:37:48;;;;;;;2.45;0.47;;;33.60;46.30;;;;;;4986218;28;20046;-82
2022/06/28 14:40:14;;;;;;;1.15;0.10;;;33.10;45.10;;;;;;5002427;28;20056;-82
2022/06/28 14:42:39;;;;;;;1.73;0.10;;;32.90;47.00;;;;;;5000449;28;20117;-82
2022/06/28 14:45:08;;;;;;;4.00;0.40;;;33.00;47.50;;;;;;4994964;28;20042;-81
2022/06/28 14:47:36;;;;;;;10.93;0.40;;;33.30;46.10;;;;;;4966620;28;20117;-81
2022/06/28 14:50:06;;;;;;;3.70;0.35;;;33.70;44.20;;;;;;4980739;28;20046;-81
2022/06/28 14:52:32;;;;;;;1.48;0.20;;;33.80;45.90;;;;;;4982159;28;20129;-82
2022/06/28 14:54:58;;;;;;;2.08;0.35;;;34.10;45.60;;;;;;4982910;28;20042;-82
2022/06/28 14:57:23;;;;;;;2.42;0.20;;;34.20;43.70;;;;;;4980413;28;20496;-82
2022/06/28 14:59:49;;;;;;;0.95;0.15;;;33.80;42.80;;;;;;4964354;28;20453;-82
2022/06/28 15:02:15;;;;;;;3.22;0.40;;;32.90;43.00;;;;;;4981835;28;20354;-82
2022/06/28 15:04:40;;;;;;;2.58;0.20;;;32.80;45.60;;;;;;5001510;28;20468;-82
2022/06/28 15:07:08;;;;;;;1.27;0.13;;;33.10;45.50;;;;;;5000635;28;20521;-82
2022/06/28 15:09:34;;;;;;;1.60;0.20;;;33.30;43.50;;;;;;5000687;28;20056;-82
2022/06/28 15:12:00;;;;;;;1.02;0.30;;;33.40;43.00;;;;;;4999991;28;20054;-82
2022/06/28 15:14:25;;;;;;;2.08;0.65;;;33.60;43.80;;;;;;5000244;28;20088;-82
2022/06/28 15:16:51;;;;;;;3.03;0.30;;;33.00;42.60;;;;;;4993068;28;20042;-81
2022/06/28 15:19:17;;;;;;;0.85;0.10;;;32.40;43.70;;;;;;4979935;28;20046;-83
2022/06/28 15:32:38;;;;;;;;;;;32.90;42.40;;;;;;4998238;28;20050;-83
2022/06/28 15:35:04;;;;;;;2.45;0.40;;;32.80;42.60;;;;;;4999043;28;19917;-83
2022/06/28 15:37:30;;;;;;;2.88;0.15;;;32.50;43.40;;;;;;4997739;28;20053;-83
2022/06/28 15:39:56;;;;;;;1.70;0.40;;;32.50;44.20;;;;;;4999567;28;20046;-82
2022/06/28 15:42:21;;;;;;;3.22;0.30;;;32.90;42.30;;;;;;5001411;28;20041;-82
2022/06/28 15:44:47;;;;;;;1.45;0.30;;;33.30;42.30;;;;;;4997876;28;20053;-81
2022/06/28 15:47:13;;;;;;;2.17;0.30;;;33.30;43.50;;;;;;4979301;28;20046;-82
2022/06/28 15:49:38;;;;;;;1.55;0.20;;;33.20;43.10;;;;;;4989992;28;20048;-82
2022/06/28 15:52:04;;;;;;;1.27;0.20;;;33.00;43.90;;;;;;4999269;28;20084;-82